Aviation Digital Data Service (ADDS)

Output produced by TAFs form (0230 UTC 24 August 2016)
found at http://aviationweather.gov/adds/tafs/
 
KFMN 232340Z 2400/2424 28010G18KT P6SM VCSH SCT070 OVC120 
     TEMPO 2400/2402 VRB20G30KT -TSRA BKN070CB 
     FM240200 29011KT P6SM VCSH SCT070 BKN100 
     FM240800 07006KT P6SM BKN110 
     FM241600 12006KT P6SM SCT120 
     FM242000 26010KT P6SM FEW080